createdAt,value
2018-08-10T00:00:06.794Z,20.35
2018-08-10T00:02:35.199Z,20.44
2018-08-10T00:05:03.555Z,20.39
2018-08-10T00:07:31.791Z,20.33
2018-08-10T00:10:00.094Z,20.38
2018-08-10T00:12:28.450Z,20.30
2018-08-10T00:14:56.676Z,20.42
2018-08-10T00:17:24.958Z,20.31
2018-08-10T00:19:53.170Z,20.21
2018-08-10T00:22:21.472Z,20.19
2018-08-10T00:24:49.634Z,20.17
2018-08-10T00:27:17.867Z,20.11
2018-08-10T00:29:46.343Z,20.13
2018-08-10T00:32:14.630Z,19.98
2018-08-10T00:34:42.883Z,20.01
2018-08-10T00:37:11.170Z,19.88
2018-08-10T00:39:39.382Z,19.89
2018-08-10T00:42:07.595Z,19.90
2018-08-10T00:44:35.839Z,19.91
2018-08-10T00:47:04.195Z,19.80
2018-08-10T00:49:32.454Z,19.81
2018-08-10T00:52:00.711Z,19.80
2018-08-10T00:54:29.023Z,19.80
2018-08-10T00:56:57.366Z,19.77
2018-08-10T00:59:25.667Z,19.70
2018-08-10T01:01:53.955Z,19.53
2018-08-10T01:04:22.263Z,19.30
2018-08-10T01:06:50.542Z,19.35
2018-08-10T01:09:18.798Z,19.22
2018-08-10T01:11:47.116Z,19.22
2018-08-10T01:14:15.306Z,19.12
2018-08-10T01:16:43.614Z,19.00
2018-08-10T01:19:11.936Z,18.93
2018-08-10T01:21:40.195Z,18.94
2018-08-10T01:24:08.515Z,18.87
2018-08-10T01:26:36.747Z,18.84
2018-08-10T01:29:05.048Z,18.84
2018-08-10T01:31:33.258Z,18.82
2018-08-10T01:34:01.464Z,18.84
2018-08-10T01:36:29.714Z,18.87
2018-08-10T01:38:57.997Z,18.79
2018-08-10T01:41:26.210Z,18.68
2018-08-10T01:43:54.402Z,18.69
2018-08-10T01:46:22.599Z,18.46
2018-08-10T01:48:50.843Z,18.45
2018-08-10T01:51:19.145Z,18.31
2018-08-10T01:53:47.422Z,18.42
2018-08-10T01:56:15.626Z,18.44
2018-08-10T01:58:43.854Z,18.39
2018-08-10T02:01:12.035Z,18.39
2018-08-10T02:03:40.266Z,18.14
2018-08-10T02:06:08.548Z,18.16
2018-08-10T02:08:36.722Z,18.20
2018-08-10T02:11:04.947Z,18.12
2018-08-10T02:13:33.126Z,18.11
2018-08-10T02:16:01.338Z,17.99
2018-08-10T02:18:29.546Z,17.94
2018-08-10T02:20:57.768Z,18.03
2018-08-10T02:23:25.986Z,17.87
2018-08-10T02:25:54.181Z,17.85
2018-08-10T02:28:22.430Z,17.81
2018-08-10T02:30:50.706Z,17.84
2018-08-10T02:33:18.918Z,17.82
2018-08-10T02:35:47.131Z,17.82
2018-08-10T02:38:15.375Z,17.69
2018-08-10T02:40:43.555Z,17.78
2018-08-10T02:43:11.759Z,17.70
2018-08-10T02:45:40.044Z,17.82
2018-08-10T02:48:08.259Z,17.81
2018-08-10T02:50:36.475Z,17.86
2018-08-10T02:53:04.676Z,17.81
2018-08-10T02:55:32.918Z,17.64
2018-08-10T02:58:01.127Z,17.78
2018-08-10T03:00:29.327Z,17.75
2018-08-10T03:02:57.555Z,17.74
2018-08-10T03:05:25.866Z,17.68
2018-08-10T03:07:54.133Z,17.71
2018-08-10T03:10:22.419Z,17.48
2018-08-10T03:12:50.728Z,17.55
2018-08-10T03:15:19.014Z,17.55
2018-08-10T03:17:47.235Z,17.54
2018-08-10T03:20:15.423Z,17.19
2018-08-10T03:22:43.704Z,17.31
2018-08-10T03:25:13.341Z,17.41
2018-08-10T03:27:41.597Z,17.50
2018-08-10T03:30:11.203Z,17.38
2018-08-10T03:32:39.754Z,17.42
2018-08-10T03:35:07.994Z,17.47
2018-08-10T03:37:36.470Z,17.44
2018-08-10T03:40:06.867Z,17.58
2018-08-10T03:42:38.816Z,17.58
2018-08-10T03:45:07.550Z,17.57
2018-08-10T03:47:35.771Z,17.47
2018-08-10T03:50:04.822Z,17.52
2018-08-10T03:52:33.026Z,17.51
2018-08-10T03:55:01.216Z,17.53
2018-08-10T03:57:29.439Z,17.36
2018-08-10T03:59:57.927Z,17.47
2018-08-10T04:02:26.323Z,17.40
2018-08-10T04:04:54.506Z,17.36
2018-08-10T04:07:22.710Z,17.28
2018-08-10T04:09:50.927Z,17.20
2018-08-10T04:12:19.171Z,17.21
2018-08-10T04:14:47.499Z,17.24
2018-08-10T04:17:23.297Z,17.22
2018-08-10T04:19:52.499Z,17.21
2018-08-10T04:22:20.842Z,17.28
2018-08-10T04:24:49.163Z,17.19
2018-08-10T04:27:17.500Z,17.02
2018-08-10T04:29:45.698Z,17.09
2018-08-10T04:32:13.998Z,17.14
2018-08-10T04:34:42.263Z,17.13
2018-08-10T04:37:10.570Z,17.17
2018-08-10T04:39:38.854Z,17.14
2018-08-10T04:42:07.175Z,17.02
2018-08-10T04:44:35.411Z,17.13
2018-08-10T04:47:03.747Z,17.04
2018-08-10T04:49:31.970Z,17.08
2018-08-10T04:52:00.210Z,17.04
2018-08-10T04:54:28.435Z,17.08
2018-08-10T04:56:56.762Z,17.10
2018-08-10T04:59:25.372Z,17.04
2018-08-10T05:01:53.586Z,16.92
2018-08-10T05:04:21.791Z,16.96
2018-08-10T05:06:49.976Z,16.94
2018-08-10T05:09:18.227Z,16.94
2018-08-10T05:11:46.442Z,16.98
2018-08-10T05:14:14.679Z,17.03
2018-08-10T05:16:43.152Z,16.96
2018-08-10T05:19:11.347Z,17.09
2018-08-10T05:21:39.598Z,17.16
2018-08-10T05:24:08.019Z,17.23
2018-08-10T05:26:36.211Z,17.25
2018-08-10T05:29:10.462Z,17.35
2018-08-10T05:31:38.705Z,17.33
2018-08-10T05:34:06.923Z,17.33
2018-08-10T05:36:35.138Z,17.30
2018-08-10T05:39:03.804Z,17.23
2018-08-10T05:41:32.050Z,17.35
2018-08-10T05:44:00.274Z,17.28
2018-08-10T05:46:28.569Z,17.23
2018-08-10T05:48:56.689Z,17.33
2018-08-10T05:51:24.904Z,17.52
2018-08-10T05:53:53.087Z,17.61
2018-08-10T05:56:21.369Z,17.61
2018-08-10T05:58:49.575Z,17.07
2018-08-10T06:01:17.794Z,17.29
2018-08-10T06:03:46.025Z,17.33
2018-08-10T06:06:14.214Z,17.42
2018-08-10T06:08:42.411Z,17.59
2018-08-10T06:11:10.833Z,17.81
2018-08-10T06:13:39.064Z,17.76
2018-08-10T06:16:07.266Z,17.76
2018-08-10T06:18:35.511Z,17.52
2018-08-10T06:21:03.714Z,17.69
2018-08-10T06:23:31.922Z,17.63
2018-08-10T06:26:00.132Z,17.72
2018-08-10T06:28:28.306Z,17.96
2018-08-10T06:30:56.714Z,18.20
2018-08-10T06:33:24.890Z,18.05
2018-08-10T06:35:53.170Z,18.32
2018-08-10T06:38:21.395Z,18.50
2018-08-10T06:40:49.770Z,18.81
2018-08-10T06:43:17.953Z,18.22
2018-08-10T06:45:46.208Z,18.16
2018-08-10T06:48:14.422Z,17.73
2018-08-10T06:50:42.658Z,17.87
2018-08-10T06:53:10.908Z,17.69
2018-08-10T06:55:39.122Z,17.77
2018-08-10T06:58:07.327Z,18.06
2018-08-10T07:00:35.716Z,18.19
2018-08-10T07:03:03.841Z,17.85
2018-08-10T07:05:32.039Z,17.96
2018-08-10T07:08:00.267Z,18.25
2018-08-10T07:10:28.467Z,18.26
2018-08-10T07:12:56.781Z,18.31
2018-08-10T07:15:24.926Z,18.46
2018-08-10T07:17:53.203Z,18.21
2018-08-10T07:20:21.409Z,18.35
2018-08-10T07:22:49.687Z,18.47
2018-08-10T07:25:17.863Z,18.54
2018-08-10T07:27:46.080Z,18.38
2018-08-10T07:30:14.278Z,18.76
2018-08-10T07:32:42.554Z,18.81
2018-08-10T07:35:10.914Z,18.71
2018-08-10T07:37:39.110Z,18.84
2018-08-10T07:40:07.463Z,18.91
2018-08-10T07:42:35.664Z,19.19
2018-08-10T07:45:03.954Z,19.11
2018-08-10T07:47:32.176Z,19.28
2018-08-10T07:50:00.401Z,19.20
2018-08-10T07:52:35.306Z,19.22
2018-08-10T07:55:03.595Z,19.33
2018-08-10T07:57:31.793Z,18.76
2018-08-10T08:00:00.088Z,18.86
2018-08-10T08:02:28.414Z,19.32
2018-08-10T08:04:56.678Z,19.44
2018-08-10T08:07:24.886Z,19.61
2018-08-10T08:09:53.110Z,19.44
2018-08-10T08:12:21.463Z,19.56
2018-08-10T08:14:49.704Z,19.71
2018-08-10T08:17:17.947Z,19.86
2018-08-10T08:19:46.468Z,19.60
2018-08-10T08:22:17.926Z,19.91
2018-08-10T08:24:46.163Z,20.36
2018-08-10T08:27:15.602Z,20.52
2018-08-10T08:29:43.827Z,20.53
2018-08-10T08:32:12.330Z,20.87
2018-08-10T08:34:40.884Z,21.11
2018-08-10T08:37:09.440Z,20.68
2018-08-10T08:40:43.011Z,20.50
2018-08-10T08:43:11.386Z,19.99
2018-08-10T08:46:12.934Z,20.30
2018-08-10T08:48:43.528Z,20.21
2018-08-10T08:51:13.666Z,20.33
2018-08-10T08:53:42.003Z,20.20
2018-08-10T08:56:12.639Z,20.70
2018-08-10T08:58:41.410Z,20.78
2018-08-10T09:01:10.000Z,20.64
2018-08-10T09:05:09.519Z,20.71
2018-08-10T09:07:38.160Z,20.70
2018-08-10T09:10:13.337Z,21.20
2018-08-10T09:12:41.612Z,21.34
2018-08-10T09:15:13.076Z,21.10
2018-08-10T09:17:41.481Z,21.13
2018-08-10T09:20:10.162Z,20.92
2018-08-10T09:22:38.488Z,20.61
2018-08-10T09:25:10.890Z,20.58
2018-08-10T09:27:39.143Z,20.17
2018-08-10T09:30:10.928Z,20.39
2018-08-10T09:32:39.363Z,20.78
2018-08-10T09:35:08.726Z,20.51
2018-08-10T09:37:36.967Z,20.34
2018-08-10T09:40:08.589Z,20.48
2018-08-10T09:42:37.063Z,20.61
2018-08-10T09:45:06.399Z,20.54
2018-08-10T09:47:34.662Z,20.71
2018-08-10T09:50:02.971Z,20.98
2018-08-10T09:52:31.194Z,21.12
2018-08-10T09:55:18.192Z,21.42
2018-08-10T09:57:46.450Z,21.97
2018-08-10T10:00:20.123Z,22.11
2018-08-10T10:02:53.246Z,22.61
2018-08-10T10:05:22.327Z,22.40
2018-08-10T10:07:50.555Z,22.08
2018-08-10T10:10:18.908Z,22.05
2018-08-10T10:12:47.243Z,21.31
2018-08-10T10:15:15.553Z,21.62
2018-08-10T10:17:43.763Z,22.25
2018-08-10T10:20:11.957Z,22.62
2018-08-10T10:25:30.919Z,22.32
2018-08-10T10:27:59.159Z,22.66
2018-08-10T10:30:27.472Z,22.07
2018-08-10T10:32:55.771Z,22.07
2018-08-10T10:35:24.043Z,22.52
2018-08-10T10:37:52.296Z,23.23
2018-08-10T10:40:20.530Z,23.47
2018-08-10T10:42:48.999Z,23.21
2018-08-10T10:45:17.353Z,23.59
2018-08-10T10:47:46.786Z,23.62
2018-08-10T10:50:15.382Z,23.55
2018-08-10T10:52:43.835Z,24.03
2018-08-10T10:55:12.418Z,23.80
2018-08-10T10:57:41.631Z,23.79
2018-08-10T11:00:18.221Z,22.95
2018-08-10T11:02:46.986Z,22.36
2018-08-10T11:05:15.262Z,22.48
2018-08-10T11:07:43.511Z,22.18
2018-08-10T11:10:13.042Z,22.15
2018-08-10T11:12:41.343Z,21.56
2018-08-10T11:15:10.659Z,21.70
2018-08-10T11:17:38.903Z,21.72
2018-08-10T11:20:08.771Z,21.61
2018-08-10T11:22:37.447Z,21.86
2018-08-10T11:25:06.783Z,22.09
2018-08-10T11:27:35.024Z,22.18
2018-08-10T11:30:03.394Z,21.99
2018-08-10T11:32:31.603Z,22.26
2018-08-10T11:34:59.799Z,22.40
2018-08-10T11:37:27.993Z,22.37
2018-08-10T11:39:56.204Z,22.36
2018-08-10T11:42:24.421Z,22.52
2018-08-10T11:44:52.798Z,22.61
2018-08-10T11:47:21.025Z,22.77
2018-08-10T11:49:49.371Z,23.18
2018-08-10T11:52:17.578Z,23.81
2018-08-10T11:54:45.939Z,23.68
2018-08-10T11:57:14.199Z,23.56
2018-08-10T11:59:42.578Z,23.53
2018-08-10T12:02:10.928Z,23.71
2018-08-10T12:04:39.279Z,23.72
2018-08-10T12:07:07.552Z,23.47
2018-08-10T12:09:35.831Z,23.10
2018-08-10T12:12:04.171Z,23.11
2018-08-10T12:14:32.376Z,22.69
2018-08-10T12:17:00.678Z,22.76
2018-08-10T12:19:28.991Z,23.05
2018-08-10T12:21:57.267Z,23.62
2018-08-10T12:24:25.561Z,23.78
2018-08-10T12:26:54.052Z,23.48
2018-08-10T12:29:22.359Z,23.33
2018-08-10T12:31:50.602Z,23.17
2018-08-10T12:34:18.835Z,23.27
2018-08-10T12:36:47.055Z,22.84
2018-08-10T12:39:15.294Z,23.52
2018-08-10T12:41:43.573Z,22.79
2018-08-10T12:44:12.834Z,22.74
2018-08-10T12:46:41.196Z,22.62
2018-08-10T12:49:09.522Z,22.68
2018-08-10T12:51:37.922Z,23.23
2018-08-10T12:54:06.162Z,23.25
2018-08-10T12:56:34.443Z,23.31
2018-08-10T12:59:02.751Z,23.48
2018-08-10T13:01:31.011Z,23.58
2018-08-10T13:03:59.328Z,23.67
2018-08-10T13:06:27.759Z,23.64
2018-08-10T13:08:55.990Z,23.41
2018-08-10T13:11:25.907Z,23.57
2018-08-10T13:13:54.223Z,23.80
2018-08-10T13:16:22.467Z,23.76
2018-08-10T13:18:51.044Z,23.56
2018-08-10T13:21:19.539Z,24.04
2018-08-10T13:23:47.833Z,23.81
2018-08-10T13:26:16.095Z,23.98
2018-08-10T13:28:44.343Z,23.99
2018-08-10T13:31:12.635Z,23.49
2018-08-10T13:33:41.003Z,23.71
2018-08-10T13:36:09.252Z,23.35
2018-08-10T13:38:37.511Z,23.64
2018-08-10T13:41:05.807Z,23.57
2018-08-10T13:44:04.826Z,23.56
2018-08-10T13:46:33.167Z,23.23
2018-08-10T13:49:01.715Z,23.45
2018-08-10T13:51:30.137Z,23.59
2018-08-10T13:53:58.411Z,23.57
2018-08-10T13:56:27.056Z,23.50
2018-08-10T13:58:55.342Z,23.21
2018-08-10T14:01:23.823Z,23.64
2018-08-10T14:03:52.195Z,23.68
2018-08-10T14:06:20.576Z,23.47
2018-08-10T14:08:48.984Z,24.01
2018-08-10T14:11:17.394Z,24.13
2018-08-10T14:13:45.834Z,24.12
2018-08-10T14:16:14.208Z,24.24
2018-08-10T14:18:42.579Z,24.24
2018-08-10T14:21:10.965Z,24.41
2018-08-10T14:23:39.264Z,24.27
2018-08-10T14:26:07.622Z,23.98
2018-08-10T14:28:36.123Z,23.82
2018-08-10T14:31:04.484Z,23.80
2018-08-10T14:33:32.985Z,23.37
2018-08-10T14:36:01.283Z,23.78
2018-08-10T14:38:29.572Z,23.80
2018-08-10T14:40:57.841Z,24.03
2018-08-10T14:43:27.087Z,24.35
2018-08-10T14:45:55.487Z,24.15
2018-08-10T14:48:23.922Z,24.52
2018-08-10T14:50:52.414Z,24.85
2018-08-10T14:53:20.731Z,24.75
2018-08-10T14:55:49.152Z,24.35
2018-08-10T14:58:17.447Z,25.02
2018-08-10T15:00:45.893Z,25.38
2018-08-10T15:03:14.147Z,25.77
2018-08-10T15:05:42.519Z,26.12
2018-08-10T15:08:10.870Z,26.38
2018-08-10T15:10:39.196Z,26.25
2018-08-10T15:13:07.641Z,26.57
2018-08-10T15:15:35.878Z,26.27
2018-08-10T15:18:04.348Z,26.30
2018-08-10T15:20:32.831Z,26.07
2018-08-10T15:23:01.190Z,26.51
2018-08-10T15:25:29.569Z,26.54
2018-08-10T15:27:57.862Z,26.80
2018-08-10T15:30:26.252Z,26.12
2018-08-10T15:32:54.543Z,26.57
2018-08-10T15:35:22.850Z,26.80
2018-08-10T15:37:51.187Z,26.74
2018-08-10T15:40:21.014Z,25.72
2018-08-10T15:42:49.329Z,25.84
2018-08-10T15:45:18.282Z,26.71
2018-08-10T15:47:46.766Z,25.90
2018-08-10T15:50:15.111Z,25.24
2018-08-10T15:52:44.679Z,25.55
2018-08-10T15:55:14.577Z,25.40
2018-08-10T15:57:42.927Z,26.35
2018-08-10T16:00:19.186Z,26.87
2018-08-10T16:02:47.936Z,26.29
2018-08-10T16:05:16.218Z,26.76
2018-08-10T16:07:44.979Z,26.71
2018-08-10T16:10:13.424Z,26.48
2018-08-10T16:12:41.703Z,25.96
2018-08-10T16:15:12.315Z,25.48
2018-08-10T16:17:40.706Z,25.41
2018-08-10T16:20:11.100Z,25.42
2018-08-10T16:22:39.740Z,25.68
2018-08-10T16:25:09.752Z,26.09
2018-08-10T16:27:38.011Z,25.25
2018-08-10T16:30:07.978Z,25.01
2018-08-10T16:32:36.194Z,24.81
2018-08-10T16:35:04.929Z,24.39
2018-08-10T16:37:33.224Z,24.63
2018-08-10T16:40:01.574Z,24.51
2018-08-10T16:42:29.883Z,24.48
2018-08-10T16:44:58.255Z,24.38
2018-08-10T16:47:26.475Z,24.43
2018-08-10T16:49:54.714Z,24.69
2018-08-10T16:52:23.020Z,24.67
2018-08-10T16:55:33.499Z,24.21
2018-08-10T16:58:01.814Z,24.41
2018-08-10T17:00:30.063Z,24.20
2018-08-10T17:02:58.376Z,24.20
2018-08-10T17:05:26.671Z,24.04
2018-08-10T17:07:54.891Z,24.08
2018-08-10T17:10:23.215Z,23.89
2018-08-10T17:13:54.518Z,24.05
2018-08-10T17:16:22.831Z,24.50
2018-08-10T17:18:51.088Z,24.40
2018-08-10T17:21:19.366Z,24.46
2018-08-10T17:23:47.603Z,24.00
2018-08-10T17:26:15.890Z,23.95
2018-08-10T17:28:44.155Z,23.76
2018-08-10T17:31:12.417Z,23.56
2018-08-10T17:33:41.591Z,23.69
2018-08-10T17:36:09.830Z,23.40
2018-08-10T17:38:38.052Z,23.25
2018-08-10T17:41:06.359Z,23.18
2018-08-10T17:43:34.671Z,23.11
2018-08-10T17:46:03.002Z,23.05
2018-08-10T17:48:31.275Z,23.05
2018-08-10T17:50:59.554Z,22.93
2018-08-10T17:53:27.863Z,23.14
2018-08-10T17:55:56.130Z,23.00
2018-08-10T17:58:24.424Z,22.91
2018-08-10T18:00:52.668Z,22.98
2018-08-10T18:03:20.974Z,22.85
2018-08-10T18:05:49.271Z,22.81
2018-08-10T18:08:17.636Z,22.67
2018-08-10T18:10:45.858Z,22.67
2018-08-10T18:13:15.647Z,22.63
2018-08-10T18:15:43.915Z,22.61
2018-08-10T18:18:12.146Z,22.63
2018-08-10T18:20:40.463Z,22.73
2018-08-10T18:23:08.767Z,22.63
2018-08-10T18:25:37.018Z,22.58
2018-08-10T18:28:05.387Z,22.56
2018-08-10T18:30:33.586Z,22.46
2018-08-10T18:33:01.927Z,22.43
2018-08-10T18:35:30.195Z,22.34
2018-08-10T18:37:58.483Z,22.33
2018-08-10T18:40:26.799Z,22.19
2018-08-10T18:42:55.107Z,21.98
2018-08-10T18:45:23.347Z,21.79
2018-08-10T18:47:51.651Z,21.77
2018-08-10T18:50:20.543Z,21.71
2018-08-10T18:52:48.980Z,21.63
2018-08-10T18:55:21.743Z,21.54
2018-08-10T18:57:50.410Z,21.50
2018-08-10T19:00:21.216Z,21.38
2018-08-10T19:02:49.517Z,21.29
2018-08-10T19:05:18.310Z,21.24
2018-08-10T19:07:47.318Z,21.19
2018-08-10T19:10:17.866Z,21.21
2018-08-10T19:12:46.126Z,21.07
2018-08-10T19:15:14.435Z,21.08
2018-08-10T19:17:42.786Z,21.07
2018-08-10T19:20:11.871Z,21.11
2018-08-10T19:22:40.127Z,21.07
2018-08-10T19:25:09.914Z,21.08
2018-08-10T19:27:38.130Z,21.05
2018-08-10T19:30:09.693Z,21.01
2018-08-10T19:32:37.983Z,21.04
2018-08-10T19:35:06.403Z,20.96
2018-08-10T19:37:34.777Z,20.90
2018-08-10T19:40:03.028Z,20.86
2018-08-10T19:42:31.287Z,20.95
2018-08-10T19:44:59.531Z,20.98
2018-08-10T19:47:27.796Z,20.96
2018-08-10T19:49:56.099Z,20.86
2018-08-10T19:52:24.332Z,20.82
2018-08-10T19:54:52.575Z,20.77
2018-08-10T19:57:20.831Z,20.74
2018-08-10T19:59:49.153Z,20.69
2018-08-10T20:02:17.451Z,20.60
2018-08-10T20:04:45.696Z,20.62
2018-08-10T20:07:14.020Z,20.55
2018-08-10T20:09:42.250Z,20.53
2018-08-10T20:12:10.586Z,20.59
2018-08-10T20:14:38.814Z,20.46
2018-08-10T20:17:07.146Z,20.37
2018-08-10T20:19:35.434Z,20.46
2018-08-10T20:22:04.016Z,20.45
2018-08-10T20:24:32.320Z,20.35
2018-08-10T20:27:00.625Z,20.25
2018-08-10T20:29:28.907Z,20.26
2018-08-10T20:31:57.428Z,20.13
2018-08-10T20:34:25.656Z,20.11
2018-08-10T20:36:53.878Z,20.07
2018-08-10T20:39:22.292Z,20.06
2018-08-10T20:41:50.543Z,20.01
2018-08-10T20:44:18.807Z,20.00
2018-08-10T20:46:47.021Z,20.07
2018-08-10T20:49:15.339Z,20.09
2018-08-10T20:51:43.627Z,20.15
2018-08-10T20:54:11.871Z,20.00
2018-08-10T20:56:40.213Z,19.98
2018-08-10T20:59:08.438Z,19.97
2018-08-10T21:01:36.735Z,19.92
2018-08-10T21:04:05.512Z,19.86
2018-08-10T21:06:35.373Z,19.75
2018-08-10T21:09:04.795Z,19.71
2018-08-10T21:11:33.153Z,19.70
2018-08-10T21:14:01.395Z,19.62
2018-08-10T21:16:29.594Z,19.61
2018-08-10T21:18:57.831Z,19.64
2018-08-10T21:21:26.038Z,19.75
2018-08-10T21:23:54.346Z,19.54
2018-08-10T21:26:22.619Z,19.31
2018-08-10T21:28:50.902Z,19.31
2018-08-10T21:31:19.186Z,19.08
2018-08-10T21:33:47.470Z,19.22
2018-08-10T21:36:15.751Z,19.27
2018-08-10T21:38:44.078Z,19.28
2018-08-10T21:41:12.355Z,19.10
2018-08-10T21:43:40.702Z,19.12
2018-08-10T21:46:08.939Z,19.12
2018-08-10T21:48:37.233Z,19.05
2018-08-10T21:51:05.410Z,19.19
2018-08-10T21:53:33.626Z,19.22
2018-08-10T21:56:01.820Z,18.94
2018-08-10T21:58:30.087Z,18.86
2018-08-10T22:00:59.027Z,18.74
2018-08-10T22:03:27.278Z,18.65
2018-08-10T22:05:55.560Z,18.57
2018-08-10T22:08:24.426Z,18.56
2018-08-10T22:10:52.767Z,18.86
2018-08-10T22:13:26.403Z,19.05
2018-08-10T22:16:00.095Z,18.96
2018-08-10T22:18:39.383Z,18.97
2018-08-10T22:21:07.619Z,18.95
2018-08-10T22:23:35.907Z,18.85
2018-08-10T22:26:04.117Z,19.14
2018-08-10T22:28:32.310Z,18.99
2018-08-10T22:31:00.591Z,18.78
2018-08-10T22:33:28.850Z,18.64
2018-08-10T22:35:57.136Z,18.55
2018-08-10T22:38:25.431Z,18.53
2018-08-10T22:40:53.690Z,18.52
2018-08-10T22:43:22.019Z,18.39
2018-08-10T22:45:50.286Z,18.32
2018-08-10T22:48:18.678Z,18.33
2018-08-10T22:50:46.883Z,18.30
2018-08-10T22:53:15.150Z,18.44
2018-08-10T22:55:43.362Z,18.55
2018-08-10T22:58:11.615Z,18.44
2018-08-10T23:00:40.894Z,18.47
2018-08-10T23:03:09.194Z,18.46
2018-08-10T23:05:37.415Z,18.40
2018-08-10T23:08:05.908Z,18.33
2018-08-10T23:10:34.214Z,18.31
2018-08-10T23:13:02.503Z,18.28
2018-08-10T23:15:30.852Z,18.24
2018-08-10T23:17:59.067Z,18.23
2018-08-10T23:20:27.407Z,18.21
2018-08-10T23:22:55.651Z,17.95
2018-08-10T23:25:23.926Z,18.10
2018-08-10T23:27:52.223Z,18.04
2018-08-10T23:30:20.456Z,17.97
2018-08-10T23:32:48.682Z,17.85
2018-08-10T23:35:16.994Z,17.93
2018-08-10T23:37:45.264Z,17.78
2018-08-10T23:40:14.751Z,17.85
2018-08-10T23:42:43.431Z,17.76
2018-08-10T23:45:12.781Z,17.64
2018-08-10T23:47:41.794Z,17.61
2018-08-10T23:50:12.813Z,17.82
2018-08-10T23:52:41.438Z,17.69
2018-08-10T23:55:10.335Z,17.63
2018-08-10T23:57:39.807Z,17.65
